createdAt,value
2018-11-07T00:00:25.154Z,78.15
2018-11-07T00:01:25.136Z,77.78
2018-11-07T00:02:25.126Z,78.19
2018-11-07T00:03:25.115Z,78.49
2018-11-07T00:04:25.107Z,78.08
2018-11-07T00:05:25.092Z,78.19
2018-11-07T00:06:25.084Z,78.19
2018-11-07T00:07:25.069Z,78.08
2018-11-07T00:08:25.101Z,77.98
2018-11-07T00:09:25.048Z,78.49
2018-11-07T00:10:25.038Z,78.19
2018-11-07T00:11:25.026Z,78.08
2018-11-07T00:12:25.013Z,78.08
2018-11-07T00:13:25.004Z,78.19
2018-11-07T00:14:24.993Z,78.08
2018-11-07T00:15:24.982Z,77.78
2018-11-07T00:16:24.975Z,78.19
2018-11-07T00:17:24.956Z,78.19
2018-11-07T00:18:24.947Z,78.29
2018-11-07T00:19:24.963Z,78.49
2018-11-07T00:20:24.923Z,78.43
2018-11-07T00:21:24.920Z,77.88
2018-11-07T00:22:24.905Z,78.19
2018-11-07T00:23:24.908Z,78.43
2018-11-07T00:24:24.880Z,78.43
2018-11-07T00:25:24.875Z,79.04
2018-11-07T00:26:24.928Z,79.35
2018-11-07T00:27:24.844Z,78.33
2018-11-07T00:28:24.836Z,78.63
2018-11-07T00:29:24.829Z,78.83
2018-11-07T00:30:24.812Z,78.73
2018-11-07T00:31:24.800Z,78.73
2018-11-07T00:32:24.791Z,78.83
2018-11-07T00:33:24.780Z,79.04
2018-11-07T00:34:24.768Z,78.73
2018-11-07T00:35:24.767Z,78.53
2018-11-07T00:36:24.744Z,78.83
2018-11-07T00:37:24.733Z,78.83
2018-11-07T00:38:24.724Z,78.53
2018-11-07T00:39:24.710Z,78.22
2018-11-07T00:40:24.700Z,79.44
2018-11-07T00:41:24.687Z,79.14
2018-11-07T00:42:24.736Z,79.14
2018-11-07T00:43:24.666Z,79.14
2018-11-07T00:44:24.657Z,79.14
2018-11-07T00:45:24.643Z,79.28
2018-11-07T00:46:24.634Z,79.24
2018-11-07T00:47:24.625Z,79.28
2018-11-07T00:48:24.609Z,78.94
2018-11-07T00:49:24.598Z,78.83
2018-11-07T00:50:24.588Z,79.24
2018-11-07T00:51:24.577Z,78.94
2018-11-07T00:52:24.567Z,78.83
2018-11-07T00:53:24.555Z,79.24
2018-11-07T00:54:24.547Z,79.24
2018-11-07T00:55:24.540Z,78.94
2018-11-07T00:56:24.522Z,78.43
2018-11-07T00:57:24.519Z,78.87
2018-11-07T00:58:24.501Z,79.24
2018-11-07T00:59:24.490Z,79.18
2018-11-07T01:00:24.478Z,79.35
2018-11-07T01:01:24.466Z,79.18
2018-11-07T01:02:24.462Z,79.38
2018-11-07T01:03:24.444Z,79.18
2018-11-07T01:04:24.437Z,78.87
2018-11-07T01:05:24.429Z,79.48
2018-11-07T01:06:24.412Z,78.97
2018-11-07T01:07:24.401Z,79.24
2018-11-07T01:08:24.389Z,79.08
2018-11-07T01:09:24.444Z,78.67
2018-11-07T01:10:24.366Z,79.18
2018-11-07T01:11:24.358Z,78.97
2018-11-07T01:12:24.352Z,78.87
2018-11-07T01:13:24.334Z,78.67
2018-11-07T01:14:24.326Z,78.77
2018-11-07T01:15:24.313Z,79.18
2018-11-07T01:16:24.311Z,78.87
2018-11-07T01:17:24.293Z,79.48
2018-11-07T01:18:24.278Z,79.18
2018-11-07T01:19:24.270Z,78.97
2018-11-07T01:20:24.282Z,79.28
2018-11-07T01:21:24.247Z,78.77
2018-11-07T01:22:24.369Z,79.28
2018-11-07T01:23:24.246Z,79.08
2018-11-07T01:24:24.243Z,79.08
2018-11-07T01:25:24.246Z,78.97
2018-11-07T01:26:24.196Z,79.18
2018-11-07T01:27:24.202Z,79.28
2018-11-07T01:28:24.276Z,78.97
2018-11-07T01:29:24.195Z,79.08
2018-11-07T01:30:24.201Z,79.08
2018-11-07T01:31:24.139Z,79.52
2018-11-07T01:32:24.122Z,79.52
2018-11-07T01:33:24.112Z,79.52
2018-11-07T01:34:24.104Z,79.01
2018-11-07T01:35:24.094Z,79.58
2018-11-07T01:36:24.077Z,79.62
2018-11-07T01:37:24.067Z,79.38
2018-11-07T01:38:24.057Z,79.42
2018-11-07T01:39:24.045Z,79.73
2018-11-07T01:40:24.040Z,79.32
2018-11-07T01:41:24.030Z,79.32
2018-11-07T01:42:24.016Z,79.73
2018-11-07T01:43:24.001Z,79.32
2018-11-07T01:44:23.991Z,79.73
2018-11-07T01:45:23.983Z,79.32
2018-11-07T01:46:23.974Z,79.62
2018-11-07T01:47:23.961Z,79.62
2018-11-07T01:48:23.955Z,79.62
2018-11-07T01:49:23.935Z,79.73
2018-11-07T01:50:23.923Z,79.21
2018-11-07T01:51:23.917Z,79.73
2018-11-07T01:52:23.902Z,79.73
2018-11-07T01:53:23.890Z,79.21
2018-11-07T01:54:23.879Z,79.73
2018-11-07T01:55:23.876Z,79.83
2018-11-07T01:56:23.856Z,80.03
2018-11-07T01:57:23.851Z,80.34
2018-11-07T01:58:23.843Z,80.44
2018-11-07T01:59:23.825Z,80.44
2018-11-07T02:00:23.813Z,80.13
2018-11-07T02:01:23.803Z,80.48
2018-11-07T02:02:23.791Z,80.44
2018-11-07T02:03:23.781Z,79.73
2018-11-07T02:04:23.769Z,79.62
2018-11-07T02:05:23.758Z,79.62
2018-11-07T02:06:23.752Z,79.32
2018-11-07T02:07:23.735Z,79.32
2018-11-07T02:08:23.725Z,79.83
2018-11-07T02:09:23.715Z,79.87
2018-11-07T02:10:23.706Z,79.76
2018-11-07T02:11:23.693Z,79.97
2018-11-07T02:12:23.683Z,79.32
2018-11-07T02:13:23.672Z,79.66
2018-11-07T02:14:23.663Z,79.15
2018-11-07T02:15:23.650Z,79.46
2018-11-07T02:16:23.640Z,79.52
2018-11-07T02:17:23.623Z,79.52
2018-11-07T02:18:23.613Z,79.35
2018-11-07T02:19:23.603Z,79.56
2018-11-07T02:20:23.591Z,79.97
2018-11-07T02:21:23.580Z,79.87
2018-11-07T02:22:23.572Z,79.76
2018-11-07T02:23:23.558Z,79.62
2018-11-07T02:24:23.547Z,79.35
2018-11-07T02:25:23.536Z,79.76
2018-11-07T02:26:23.587Z,79.87
2018-11-07T02:27:23.514Z,79.56
2018-11-07T02:28:23.505Z,80.17
2018-11-07T02:29:23.492Z,79.87
2018-11-07T02:30:23.481Z,80.58
2018-11-07T02:31:23.473Z,80.37
2018-11-07T02:32:23.463Z,80.07
2018-11-07T02:33:23.450Z,80.48
2018-11-07T02:34:23.437Z,80.58
2018-11-07T02:35:23.426Z,80.48
2018-11-07T02:36:23.414Z,79.56
2018-11-07T02:37:23.407Z,80.07
2018-11-07T02:38:23.393Z,79.56
2018-11-07T02:39:23.382Z,79.21
2018-11-07T02:40:23.371Z,79.35
2018-11-07T02:41:23.359Z,79.05
2018-11-07T02:42:23.354Z,79.35
2018-11-07T02:43:23.336Z,79.35
2018-11-07T02:44:23.329Z,79.66
2018-11-07T02:45:23.317Z,79.25
2018-11-07T02:46:23.304Z,80.58
2018-11-07T02:47:23.293Z,79.46
2018-11-07T02:48:23.282Z,80.58
2018-11-07T02:49:23.271Z,80.48
2018-11-07T02:50:23.260Z,80.27
2018-11-07T02:51:23.248Z,80.07
2018-11-07T02:52:23.239Z,79.76
2018-11-07T02:53:23.252Z,80.27
2018-11-07T02:54:23.245Z,80.48
2018-11-07T02:55:23.205Z,80.58
2018-11-07T02:56:23.198Z,80.07
2018-11-07T02:57:23.182Z,80.17
2018-11-07T02:58:23.175Z,80.27
2018-11-07T02:59:23.160Z,80.27
2018-11-07T03:00:23.149Z,80.31
2018-11-07T03:01:23.367Z,80.51
2018-11-07T03:02:23.128Z,80.31
2018-11-07T03:03:23.117Z,80.41
2018-11-07T03:04:23.105Z,80.41
2018-11-07T03:05:23.097Z,80.62
2018-11-07T03:06:23.085Z,80.82
2018-11-07T03:07:23.071Z,80.41
2018-11-07T03:08:23.063Z,80.62
2018-11-07T03:09:23.056Z,80.62
2018-11-07T03:10:23.071Z,80.41
2018-11-07T03:11:23.035Z,80.65
2018-11-07T03:12:23.017Z,80.45
2018-11-07T03:13:23.024Z,80.72
2018-11-07T03:14:23.005Z,80.62
2018-11-07T03:15:22.992Z,80.72
2018-11-07T03:16:22.975Z,80.41
2018-11-07T03:17:22.968Z,80.41
2018-11-07T03:18:22.958Z,80.72
2018-11-07T03:19:22.945Z,80.86
2018-11-07T03:20:22.930Z,80.76
2018-11-07T03:21:22.917Z,80.31
2018-11-07T03:22:22.907Z,80.76
2018-11-07T03:23:22.897Z,80.96
2018-11-07T03:24:22.885Z,80.65
2018-11-07T03:25:22.873Z,80.86
2018-11-07T03:26:22.863Z,80.76
2018-11-07T03:27:22.850Z,80.86
2018-11-07T03:28:22.865Z,80.65
2018-11-07T03:29:22.829Z,80.96
2018-11-07T03:30:22.818Z,81.06
2018-11-07T03:31:22.808Z,80.56
2018-11-07T03:32:22.798Z,80.86
2018-11-07T03:33:22.786Z,81.27
2018-11-07T03:34:22.778Z,80.96
2018-11-07T03:35:22.763Z,80.96
2018-11-07T03:36:22.756Z,81.06
2018-11-07T03:37:22.741Z,81.17
2018-11-07T03:38:22.737Z,80.96
2018-11-07T03:39:22.718Z,80.56
2018-11-07T03:40:22.715Z,81.06
2018-11-07T03:41:22.696Z,80.45
2018-11-07T03:42:22.691Z,81.27
2018-11-07T03:43:22.674Z,81.06
2018-11-07T03:44:22.664Z,81.27
2018-11-07T03:45:22.654Z,81.61
2018-11-07T03:46:22.641Z,81.51
2018-11-07T03:47:22.630Z,81.41
2018-11-07T03:48:22.619Z,81.57
2018-11-07T03:49:22.616Z,81.61
2018-11-07T03:50:22.601Z,81.61
2018-11-07T03:51:22.586Z,81.71
2018-11-07T03:52:22.579Z,81.61
2018-11-07T03:53:22.709Z,81.51
2018-11-07T03:54:22.561Z,81.61
2018-11-07T03:55:22.541Z,81.71
2018-11-07T03:56:22.536Z,81.71
2018-11-07T03:57:22.519Z,81.71
2018-11-07T03:58:22.507Z,81.71
2018-11-07T03:59:22.509Z,81.61
2018-11-07T04:00:22.485Z,81.51
2018-11-07T04:01:22.475Z,81.82
2018-11-07T04:02:22.464Z,81.82
2018-11-07T04:03:22.452Z,82.02
2018-11-07T04:04:22.448Z,81.71
2018-11-07T04:05:22.431Z,82.02
2018-11-07T04:06:22.433Z,81.92
2018-11-07T04:07:22.411Z,81.71
2018-11-07T04:08:22.398Z,81.82
2018-11-07T04:09:22.387Z,81.82
2018-11-07T04:10:22.381Z,81.71
2018-11-07T04:11:22.367Z,81.92
2018-11-07T04:12:22.353Z,81.82
2018-11-07T04:13:22.343Z,81.75
2018-11-07T04:14:22.332Z,81.71
2018-11-07T04:15:22.326Z,81.75
2018-11-07T04:16:22.316Z,81.65
2018-11-07T04:17:22.298Z,81.82
2018-11-07T04:18:22.294Z,82.06
2018-11-07T04:19:22.281Z,82.16
2018-11-07T04:20:22.268Z,81.86
2018-11-07T04:21:22.252Z,82.37
2018-11-07T04:22:22.247Z,81.96
2018-11-07T04:23:22.237Z,82.16
2018-11-07T04:24:22.218Z,81.65
2018-11-07T04:25:22.208Z,81.65
2018-11-07T04:26:22.193Z,81.75
2018-11-07T04:27:22.185Z,81.55
2018-11-07T04:28:22.172Z,82.26
2018-11-07T04:29:22.168Z,82.16
2018-11-07T04:30:22.148Z,82.06
2018-11-07T04:31:22.141Z,82.47
2018-11-07T04:32:22.128Z,81.96
2018-11-07T04:33:22.120Z,82.47
2018-11-07T04:34:22.107Z,82.47
2018-11-07T04:35:22.091Z,81.75
2018-11-07T04:36:22.079Z,82.16
2018-11-07T04:37:22.072Z,82.06
2018-11-07T04:38:22.063Z,81.86
2018-11-07T04:39:22.049Z,82.57
2018-11-07T04:40:22.034Z,82.51
2018-11-07T04:41:22.047Z,82.92
2018-11-07T04:42:22.016Z,83.12
2018-11-07T04:43:22.008Z,82.51
2018-11-07T04:44:21.989Z,82.71
2018-11-07T04:45:21.980Z,82.71
2018-11-07T04:46:21.969Z,83.02
2018-11-07T04:47:21.956Z,83.22
2018-11-07T04:48:21.947Z,82.71
2018-11-07T04:49:21.934Z,83.12
2018-11-07T04:50:21.922Z,82.71
2018-11-07T04:51:21.916Z,83.43
2018-11-07T04:52:21.904Z,82.61
2018-11-07T04:53:21.952Z,82.71
2018-11-07T04:54:21.875Z,82.92
2018-11-07T04:55:21.863Z,82.40
2018-11-07T04:56:21.852Z,82.20
2018-11-07T04:57:21.842Z,82.40
2018-11-07T04:58:21.832Z,82.10
2018-11-07T04:59:21.820Z,82.00
2018-11-07T05:00:21.910Z,82.30
2018-11-07T05:01:21.809Z,81.79
2018-11-07T05:02:21.784Z,82.40
2018-11-07T05:03:21.778Z,82.30
2018-11-07T05:04:21.767Z,82.40
2018-11-07T05:05:21.756Z,82.92
2018-11-07T05:06:21.751Z,82.61
2018-11-07T05:07:21.727Z,82.00
2018-11-07T05:08:21.743Z,82.44
2018-11-07T05:09:21.787Z,82.81
2018-11-07T05:10:21.692Z,83.12
2018-11-07T05:11:21.684Z,82.81
2018-11-07T05:12:21.671Z,82.81
2018-11-07T05:13:21.668Z,82.92
2018-11-07T05:14:21.652Z,82.65
2018-11-07T05:15:21.638Z,82.65
2018-11-07T05:16:21.626Z,83.12
2018-11-07T05:17:21.619Z,82.92
2018-11-07T05:18:21.603Z,83.33
2018-11-07T05:19:21.592Z,82.40
2018-11-07T05:20:21.583Z,83.06
2018-11-07T05:21:21.569Z,82.95
2018-11-07T05:22:21.558Z,83.16
2018-11-07T05:23:21.553Z,83.06
2018-11-07T05:24:21.536Z,82.71
2018-11-07T05:25:21.522Z,83.27
2018-11-07T05:26:21.651Z,83.47
2018-11-07T05:27:21.499Z,83.47
2018-11-07T05:28:21.496Z,83.27
2018-11-07T05:29:21.476Z,83.47
2018-11-07T05:30:21.471Z,83.27
2018-11-07T05:31:21.454Z,83.67
2018-11-07T05:32:21.443Z,83.47
2018-11-07T05:33:21.431Z,83.16
2018-11-07T05:34:21.419Z,83.57
2018-11-07T05:35:21.408Z,83.16
2018-11-07T05:36:21.394Z,83.36
2018-11-07T05:37:21.384Z,83.16
2018-11-07T05:38:21.390Z,83.16
2018-11-07T05:39:21.362Z,83.27
2018-11-07T05:40:21.354Z,83.36
2018-11-07T05:41:21.424Z,83.36
2018-11-07T05:42:21.331Z,83.78
2018-11-07T05:43:21.314Z,83.78
2018-11-07T05:44:21.302Z,83.88
2018-11-07T05:45:21.289Z,83.20
2018-11-07T05:46:21.281Z,83.41
2018-11-07T05:47:21.271Z,83.27
2018-11-07T05:48:21.267Z,83.67
2018-11-07T05:49:21.243Z,83.36
2018-11-07T05:50:21.239Z,83.16
2018-11-07T05:51:21.220Z,83.67
2018-11-07T05:52:21.209Z,83.16
2018-11-07T05:53:21.205Z,83.06
2018-11-07T05:54:21.190Z,83.36
2018-11-07T05:55:21.175Z,83.88
2018-11-07T05:56:21.165Z,83.36
2018-11-07T05:57:21.152Z,83.47
2018-11-07T05:58:21.142Z,83.16
2018-11-07T05:59:21.131Z,82.86
2018-11-07T06:00:21.117Z,83.06
2018-11-07T06:01:21.105Z,83.16
2018-11-07T06:02:21.094Z,83.16
2018-11-07T06:03:21.081Z,83.41
2018-11-07T06:04:21.070Z,82.65
2018-11-07T06:05:21.064Z,83.16
2018-11-07T06:06:21.056Z,83.27
2018-11-07T06:07:21.036Z,83.36
2018-11-07T06:08:21.025Z,83.47
2018-11-07T06:09:21.015Z,83.92
2018-11-07T06:10:21.009Z,83.51
2018-11-07T06:11:20.993Z,83.92
2018-11-07T06:12:20.979Z,83.81
2018-11-07T06:13:20.968Z,84.22
2018-11-07T06:14:20.964Z,84.53
2018-11-07T06:15:20.944Z,84.43
2018-11-07T06:16:20.990Z,84.43
2018-11-07T06:17:20.924Z,84.33
2018-11-07T06:18:20.910Z,84.22
2018-11-07T06:19:20.902Z,84.33
2018-11-07T06:20:20.886Z,84.22
2018-11-07T06:21:20.879Z,84.22
2018-11-07T06:22:20.867Z,84.22
2018-11-07T06:23:20.862Z,84.53
2018-11-07T06:24:20.909Z,84.43
2018-11-07T06:25:20.829Z,84.43
2018-11-07T06:26:20.818Z,84.22
2018-11-07T06:27:20.815Z,84.22
2018-11-07T06:28:20.800Z,84.33
2018-11-07T06:29:20.788Z,84.22
2018-11-07T06:30:20.776Z,83.92
2018-11-07T06:31:20.761Z,83.71
2018-11-07T06:32:20.747Z,84.12
2018-11-07T06:33:20.739Z,83.51
2018-11-07T06:34:20.734Z,83.61
2018-11-07T06:35:20.713Z,83.61
2018-11-07T06:36:20.703Z,83.57
2018-11-07T06:37:20.694Z,83.57
2018-11-07T06:38:20.685Z,83.51
2018-11-07T06:39:20.668Z,83.06
2018-11-07T06:40:20.656Z,83.27
2018-11-07T06:41:20.650Z,83.16
2018-11-07T06:42:20.636Z,82.86
2018-11-07T06:43:20.627Z,82.95
2018-11-07T06:44:20.626Z,83.16
2018-11-07T06:45:20.601Z,82.95
2018-11-07T06:46:20.586Z,82.95
2018-11-07T06:47:20.581Z,82.75
2018-11-07T06:48:20.563Z,82.75
2018-11-07T06:49:20.550Z,82.75
2018-11-07T06:50:20.543Z,82.65
2018-11-07T06:51:20.529Z,82.65
2018-11-07T06:52:20.517Z,82.81
2018-11-07T06:53:20.505Z,82.55
2018-11-07T06:54:20.498Z,82.92
2018-11-07T06:55:20.520Z,82.03
2018-11-07T06:56:20.484Z,82.51
2018-11-07T06:57:20.462Z,81.79
2018-11-07T06:58:20.447Z,82.40
2018-11-07T06:59:20.435Z,82.10
2018-11-07T07:00:20.425Z,81.28
2018-11-07T07:01:20.491Z,82.00
2018-11-07T07:02:20.404Z,81.79
2018-11-07T07:03:20.388Z,81.24
2018-11-07T07:04:20.380Z,81.34
2018-11-07T07:05:20.436Z,81.14
2018-11-07T07:06:20.387Z,81.04
2018-11-07T07:07:20.388Z,80.73
2018-11-07T07:08:20.335Z,80.93
2018-11-07T07:09:20.333Z,80.73
2018-11-07T07:10:20.336Z,80.69
2018-11-07T07:11:20.341Z,80.73
2018-11-07T07:12:20.335Z,80.49
2018-11-07T07:13:20.276Z,80.79
2018-11-07T07:14:20.261Z,80.69
2018-11-07T07:15:20.251Z,80.59
2018-11-07T07:16:20.239Z,80.18
2018-11-07T07:17:20.269Z,80.69
2018-11-07T07:18:20.215Z,80.18
2018-11-07T07:19:20.205Z,80.69
2018-11-07T07:20:20.209Z,80.69
2018-11-07T07:21:49.715Z,79.84
2018-11-07T07:22:49.697Z,79.63
2018-11-07T07:23:49.688Z,79.84
2018-11-07T07:24:49.681Z,79.39
2018-11-07T07:25:49.673Z,79.22
2018-11-07T07:26:49.654Z,79.33
2018-11-07T07:27:49.644Z,79.22
2018-11-07T07:28:49.630Z,79.29
2018-11-07T07:29:49.695Z,79.49
2018-11-07T07:30:49.608Z,78.98
2018-11-07T07:31:49.596Z,79.08
2018-11-07T07:32:49.612Z,78.84
2018-11-07T07:33:49.689Z,78.33
2018-11-07T07:34:49.565Z,78.03
2018-11-07T07:35:49.552Z,78.23
2018-11-07T07:36:49.543Z,78.03
2018-11-07T07:37:49.528Z,78.33
2018-11-07T07:38:49.518Z,77.68
2018-11-07T07:39:49.510Z,77.38
2018-11-07T07:40:49.492Z,77.78
2018-11-07T07:41:49.482Z,76.59
2018-11-07T07:42:49.475Z,74.79
2018-11-07T07:43:49.463Z,72.55
2018-11-07T07:44:49.452Z,70.68
2018-11-07T07:45:49.555Z,68.89
2018-11-07T07:46:49.433Z,68.58
2018-11-07T07:47:49.421Z,67.81
2018-11-07T07:48:49.405Z,67.19
2018-11-07T07:49:49.395Z,67.10
2018-11-07T07:50:49.387Z,67.19
2018-11-07T07:51:49.370Z,67.97
2018-11-07T07:52:49.361Z,68.92
2018-11-07T07:53:49.347Z,69.26
2018-11-07T07:54:49.337Z,69.66
2018-11-07T07:55:49.325Z,69.12
2018-11-07T07:56:49.313Z,69.76
2018-11-07T07:57:49.360Z,69.22
2018-11-07T07:58:49.290Z,68.55
2018-11-07T07:59:49.289Z,67.60
2018-11-07T08:00:49.268Z,66.52
2018-11-07T08:01:49.256Z,63.93
2018-11-07T08:02:49.251Z,63.26
2018-11-07T08:03:49.239Z,62.22
2018-11-07T08:04:49.232Z,62.29
2018-11-07T08:05:49.211Z,60.75
2018-11-07T08:06:49.205Z,59.48
2018-11-07T08:07:49.191Z,58.74
2018-11-07T08:08:49.184Z,58.01
2018-11-07T08:09:49.174Z,58.01
2018-11-07T08:10:49.158Z,58.34
2018-11-07T08:11:49.144Z,57.91
2018-11-07T08:12:49.133Z,57.70
2018-11-07T08:13:49.160Z,57.91
2018-11-07T08:14:49.110Z,57.88
2018-11-07T08:15:49.096Z,57.04
2018-11-07T08:16:49.091Z,56.54
2018-11-07T08:17:49.077Z,57.50
2018-11-07T08:18:49.064Z,56.54
2018-11-07T08:19:49.055Z,55.91
2018-11-07T08:20:49.045Z,55.05
2018-11-07T08:21:49.037Z,53.92
2018-11-07T08:22:49.025Z,53.49
2018-11-07T08:23:50.209Z,52.86
2018-11-07T08:24:48.994Z,52.84
2018-11-07T08:25:48.986Z,51.63
2018-11-07T08:26:48.975Z,51.51
2018-11-07T08:27:48.965Z,51.28
2018-11-07T08:28:48.952Z,51.61
2018-11-07T08:29:50.145Z,51.19
2018-11-07T08:30:48.953Z,50.56
2018-11-07T08:31:48.922Z,50.31
2018-11-07T08:32:48.904Z,49.98
2018-11-07T08:33:48.892Z,48.66
2018-11-07T08:34:48.880Z,49.83
2018-11-07T08:35:48.874Z,49.93
2018-11-07T08:36:48.860Z,49.01
2018-11-07T08:37:48.848Z,48.66
2018-11-07T08:38:48.835Z,47.63
2018-11-07T08:39:48.831Z,47.19
2018-11-07T08:40:48.822Z,46.56
2018-11-07T08:41:48.807Z,45.64
2018-11-07T08:42:48.792Z,44.84
2018-11-07T08:43:48.781Z,46.67
2018-11-07T08:44:48.769Z,46.35
2018-11-07T08:45:48.763Z,45.12
2018-11-07T08:46:48.752Z,44.83
2018-11-07T08:47:48.737Z,44.80
2018-11-07T08:48:48.725Z,44.61
2018-11-07T08:49:48.719Z,45.52
2018-11-07T08:50:48.702Z,46.39
2018-11-07T08:51:48.694Z,46.79
2018-11-07T08:52:48.680Z,46.59
2018-11-07T08:53:48.669Z,47.01
2018-11-07T08:54:48.705Z,48.51
2018-11-07T08:55:48.647Z,50.53
2018-11-07T08:56:48.633Z,50.01
2018-11-07T08:57:48.624Z,48.13
2018-11-07T08:58:48.612Z,47.63
2018-11-07T08:59:48.599Z,47.41
2018-11-07T09:00:48.595Z,47.19
2018-11-07T09:01:48.578Z,46.74
2018-11-07T09:02:48.565Z,45.72
2018-11-07T09:03:48.555Z,45.10
2018-11-07T09:04:48.543Z,44.88
2018-11-07T09:05:48.536Z,43.76
2018-11-07T09:06:48.523Z,43.04
2018-11-07T09:07:48.508Z,43.64
2018-11-07T09:08:48.503Z,43.64
2018-11-07T09:09:48.486Z,42.73
2018-11-07T09:10:48.474Z,42.95
2018-11-07T09:11:48.561Z,42.81
2018-11-07T09:12:48.456Z,42.51
2018-11-07T09:13:48.443Z,42.59
2018-11-07T09:14:48.430Z,41.79
2018-11-07T09:15:48.417Z,41.67
2018-11-07T09:16:48.406Z,41.27
2018-11-07T09:17:48.395Z,41.07
2018-11-07T09:18:48.383Z,41.37
2018-11-07T09:19:48.432Z,41.37
2018-11-07T09:20:48.360Z,41.05
2018-11-07T09:21:48.350Z,41.17
2018-11-07T09:22:48.344Z,41.37
2018-11-07T09:23:48.328Z,41.45
2018-11-07T09:24:48.318Z,41.55
2018-11-07T09:25:48.304Z,41.15
2018-11-07T09:26:48.294Z,41.13
2018-11-07T09:27:48.285Z,40.93
2018-11-07T09:28:48.270Z,40.82
2018-11-07T09:29:48.259Z,40.52
2018-11-07T09:30:48.250Z,41.27
2018-11-07T09:31:48.238Z,42.90
2018-11-07T09:32:48.235Z,45.00
2018-11-07T09:33:48.217Z,46.77
2018-11-07T09:34:48.205Z,46.13
2018-11-07T09:35:48.195Z,45.40
2018-11-07T09:36:48.185Z,44.48
2018-11-07T09:37:48.173Z,44.24
2018-11-07T09:38:48.162Z,43.32
2018-11-07T09:39:48.188Z,42.88
2018-11-07T09:40:48.138Z,41.59
2018-11-07T09:41:48.129Z,42.82
2018-11-07T09:42:48.119Z,43.75
2018-11-07T09:43:48.107Z,46.14
2018-11-07T09:44:48.093Z,46.62
2018-11-07T09:45:48.085Z,47.27
2018-11-07T09:46:48.071Z,47.07
2018-11-07T09:47:48.062Z,46.62
2018-11-07T09:48:48.051Z,46.32
2018-11-07T09:49:48.040Z,47.07
2018-11-07T09:50:48.024Z,47.97
2018-11-07T09:51:48.013Z,46.62
2018-11-07T09:52:48.005Z,45.68
2018-11-07T09:53:48.021Z,44.22
2018-11-07T09:54:47.980Z,43.48
2018-11-07T09:55:47.967Z,43.46
2018-11-07T09:56:47.977Z,42.86
2018-11-07T09:57:47.953Z,44.14
2018-11-07T09:58:47.935Z,44.88
2018-11-07T09:59:47.959Z,45.06
2018-11-07T10:00:47.915Z,44.62
2018-11-07T10:01:47.898Z,42.88
2018-11-07T10:02:47.888Z,43.02
2018-11-07T10:03:47.891Z,46.35
2018-11-07T10:04:47.864Z,49.46
2018-11-07T10:05:47.853Z,50.81
2018-11-07T10:06:47.847Z,52.16
2018-11-07T10:07:47.830Z,52.77
2018-11-07T10:08:47.820Z,53.52
2018-11-07T10:09:47.810Z,53.82
2018-11-07T10:10:47.797Z,53.09
2018-11-07T10:11:47.789Z,53.72
2018-11-07T10:12:47.782Z,53.19
2018-11-07T10:13:47.761Z,53.79
2018-11-07T10:14:47.757Z,53.59
2018-11-07T10:15:47.746Z,52.86
2018-11-07T10:16:47.735Z,52.77
2018-11-07T10:17:47.721Z,52.64
2018-11-07T10:18:47.714Z,50.96
2018-11-07T10:19:47.696Z,50.59
2018-11-07T10:20:47.685Z,50.78
2018-11-07T10:21:47.672Z,51.21
2018-11-07T10:22:47.664Z,50.93
2018-11-07T10:23:47.652Z,52.74
2018-11-07T10:24:47.637Z,52.86
2018-11-07T10:25:47.636Z,53.79
2018-11-07T10:26:47.677Z,53.19
2018-11-07T10:27:47.979Z,53.49
2018-11-07T10:28:47.863Z,53.61
2018-11-07T10:29:47.821Z,54.62
2018-11-07T10:30:47.575Z,54.55
2018-11-07T10:31:47.559Z,54.57
2018-11-07T10:32:47.548Z,54.75
2018-11-07T10:33:47.540Z,53.61
2018-11-07T10:34:47.529Z,53.29
2018-11-07T10:35:47.515Z,53.59
2018-11-07T10:36:47.505Z,54.02
2018-11-07T10:37:47.597Z,53.52
2018-11-07T10:38:47.586Z,53.39
2018-11-07T10:39:47.561Z,53.39
2018-11-07T10:40:47.461Z,52.94
2018-11-07T10:41:47.449Z,52.84
2018-11-07T10:42:47.437Z,52.94
2018-11-07T10:43:47.458Z,53.04
2018-11-07T10:44:47.424Z,52.41
2018-11-07T10:45:47.405Z,51.36
2018-11-07T10:46:47.394Z,50.31
2018-11-07T10:47:47.384Z,49.37
2018-11-07T10:48:47.375Z,48.82
2018-11-07T10:49:47.364Z,47.47
2018-11-07T10:50:47.356Z,46.36
2018-11-07T10:51:47.452Z,45.64
2018-11-07T10:52:47.326Z,46.48
2018-11-07T10:53:47.317Z,47.10
2018-11-07T10:54:47.303Z,46.88
2018-11-07T10:55:47.336Z,45.83
2018-11-07T10:56:47.286Z,44.97
2018-11-07T10:57:47.272Z,42.94
2018-11-07T10:58:47.261Z,42.32
2018-11-07T10:59:47.248Z,42.40
2018-11-07T11:00:47.236Z,41.89
2018-11-07T11:01:47.225Z,41.19
2018-11-07T11:02:47.225Z,42.98
2018-11-07T11:03:47.205Z,45.88
2018-11-07T11:04:47.195Z,48.59
2018-11-07T11:05:47.193Z,48.66
2018-11-07T11:06:47.172Z,49.41
2018-11-07T11:07:47.159Z,50.21
2018-11-07T11:08:47.151Z,49.37
2018-11-07T11:09:47.145Z,48.42
2018-11-07T11:10:47.127Z,46.97
2018-11-07T11:11:47.119Z,46.03
2018-11-07T11:12:47.106Z,45.22
2018-11-07T11:13:47.095Z,45.42
2018-11-07T11:14:47.081Z,45.83
2018-11-07T11:15:47.071Z,45.01
2018-11-07T11:16:47.145Z,45.95
2018-11-07T11:17:47.051Z,46.67
2018-11-07T11:18:47.038Z,47.10
2018-11-07T11:19:47.027Z,47.32
2018-11-07T11:20:47.019Z,47.65
2018-11-07T11:21:47.004Z,48.72
2018-11-07T11:22:46.991Z,47.92
2018-11-07T11:23:46.986Z,48.84
2018-11-07T11:24:46.973Z,48.87
2018-11-07T11:25:46.985Z,48.96
2018-11-07T11:26:46.953Z,48.64
2018-11-07T11:27:46.946Z,47.42
2018-11-07T11:28:46.932Z,47.92
2018-11-07T11:29:46.918Z,48.14
2018-11-07T11:30:46.905Z,47.65
2018-11-07T11:31:46.899Z,47.92
2018-11-07T11:32:46.885Z,47.00
2018-11-07T11:33:46.934Z,46.73
2018-11-07T11:34:46.988Z,45.01
2018-11-07T11:35:46.854Z,45.22
2018-11-07T11:36:46.843Z,46.08
2018-11-07T11:37:46.837Z,46.67
2018-11-07T11:38:46.833Z,45.76
2018-11-07T11:39:46.814Z,45.52
2018-11-07T11:40:46.797Z,44.79
2018-11-07T11:41:46.793Z,45.00
2018-11-07T11:42:46.779Z,45.04
2018-11-07T11:43:46.766Z,45.44
2018-11-07T11:44:46.755Z,46.25
2018-11-07T11:45:46.741Z,46.06
2018-11-07T11:46:46.733Z,45.83
2018-11-07T11:47:46.718Z,44.52
2018-11-07T11:48:46.708Z,44.67
2018-11-07T11:49:46.695Z,43.96
2018-11-07T11:50:46.685Z,43.00
2018-11-07T11:51:46.675Z,42.30
2018-11-07T11:52:46.664Z,42.40
2018-11-07T11:53:46.653Z,42.40
2018-11-07T11:54:46.644Z,42.43
2018-11-07T11:55:46.632Z,43.34
2018-11-07T11:56:46.620Z,44.10
2018-11-07T11:57:46.610Z,45.95
2018-11-07T11:58:46.671Z,46.16
2018-11-07T11:59:46.811Z,45.12
2018-11-07T12:00:46.575Z,43.98
2018-11-07T12:01:46.568Z,42.84
2018-11-07T12:02:46.561Z,42.52
2018-11-07T12:03:46.543Z,43.12
2018-11-07T12:04:46.532Z,42.65
2018-11-07T12:05:46.523Z,44.20
2018-11-07T12:06:46.510Z,44.50
2018-11-07T12:07:46.501Z,43.98
2018-11-07T12:08:46.517Z,42.76
2018-11-07T12:09:46.481Z,42.84
2018-11-07T12:10:46.465Z,42.10
2018-11-07T12:11:46.486Z,41.19
2018-11-07T12:12:46.445Z,41.27
2018-11-07T12:13:46.439Z,40.75
2018-11-07T12:14:46.427Z,40.88
2018-11-07T12:15:46.419Z,40.77
2018-11-07T12:16:46.425Z,41.07
2018-11-07T12:17:46.555Z,40.36
2018-11-07T12:18:46.434Z,40.46
2018-11-07T12:19:46.369Z,40.83
2018-11-07T12:20:46.374Z,40.36
2018-11-07T12:21:46.376Z,40.28
2018-11-07T12:22:46.376Z,41.07
2018-11-07T12:23:46.322Z,40.88
2018-11-07T12:24:46.311Z,41.09
2018-11-07T12:25:46.305Z,41.39
2018-11-07T12:26:46.361Z,41.49
2018-11-07T12:27:46.278Z,41.23
2018-11-07T12:28:46.267Z,42.02
2018-11-07T12:29:46.256Z,42.02
2018-11-07T12:30:46.251Z,41.43
2018-11-07T12:31:46.233Z,41.73
2018-11-07T12:32:46.223Z,41.65
2018-11-07T12:33:46.216Z,41.55
2018-11-07T12:34:46.209Z,41.63
2018-11-07T12:35:46.193Z,41.93
2018-11-07T12:36:46.178Z,42.24
2018-11-07T12:37:46.165Z,42.05
2018-11-07T12:38:46.156Z,42.66
2018-11-07T12:39:46.144Z,43.88
2018-11-07T12:40:46.134Z,43.28
2018-11-07T12:41:46.121Z,43.48
2018-11-07T12:42:46.176Z,42.96
2018-11-07T12:43:46.099Z,42.88
2018-11-07T12:44:46.090Z,43.08
2018-11-07T12:45:46.077Z,43.98
2018-11-07T12:46:46.065Z,44.74
2018-11-07T12:47:46.060Z,46.22
2018-11-07T12:48:46.050Z,47.77
2018-11-07T12:49:46.111Z,48.84
2018-11-07T12:50:46.026Z,50.16
2018-11-07T12:51:46.013Z,50.61
2018-11-07T12:52:46.007Z,50.78